createdAt,value
2022-08-20T00:01:42.343Z,23.49
2022-08-20T00:04:11.236Z,23.51
2022-08-20T00:06:40.558Z,23.53
2022-08-20T00:09:10.384Z,23.54
2022-08-20T00:11:40.603Z,23.52
2022-08-20T00:14:08.638Z,23.52
2022-08-20T00:16:39.173Z,23.49
2022-08-20T00:19:09.638Z,23.50
2022-08-20T00:21:38.057Z,23.52
2022-08-20T00:24:07.100Z,23.52
2022-08-20T00:26:35.266Z,23.49
2022-08-20T00:29:09.501Z,23.52
2022-08-20T00:31:38.976Z,23.49
2022-08-20T00:34:07.327Z,23.53
2022-08-20T00:36:35.302Z,23.50
2022-08-20T00:39:03.201Z,23.50
2022-08-20T00:41:31.377Z,23.54
2022-08-20T00:44:09.294Z,23.49
2022-08-20T00:46:39.544Z,23.42
2022-08-20T00:49:09.737Z,23.45
2022-08-20T00:51:41.373Z,23.45
2022-08-20T00:54:15.288Z,23.46
2022-08-20T00:56:44.940Z,23.48
2022-08-20T00:59:19.224Z,23.48
2022-08-20T01:01:56.276Z,23.46
2022-08-20T01:04:26.316Z,23.42
2022-08-20T01:06:54.908Z,23.37
2022-08-20T01:09:33.537Z,23.37
2022-08-20T01:12:12.383Z,23.35
2022-08-20T01:14:45.569Z,23.35
2022-08-20T01:17:18.602Z,23.29
2022-08-20T01:19:52.585Z,23.19
2022-08-20T01:22:43.914Z,23.20
2022-08-20T01:25:18.217Z,23.22
2022-08-20T01:27:53.222Z,23.22
2022-08-20T01:30:25.989Z,23.18
2022-08-20T01:32:54.097Z,23.16
2022-08-20T01:35:24.217Z,23.10
2022-08-20T01:37:52.277Z,22.98
2022-08-20T01:40:34.581Z,23.04
2022-08-20T01:43:09.100Z,22.99
2022-08-20T01:45:40.172Z,23.00
2022-08-20T01:48:09.635Z,23.03
2022-08-20T01:50:43.215Z,23.00
2022-08-20T01:53:19.282Z,23.02
2022-08-20T01:55:47.282Z,23.02
2022-08-20T01:58:17.021Z,23.00
2022-08-20T02:00:45.120Z,23.01
2022-08-20T02:03:13.036Z,22.96
2022-08-20T02:05:41.059Z,22.92
2022-08-20T02:08:09.073Z,22.91
2022-08-20T02:10:37.425Z,22.93
2022-08-20T02:13:08.622Z,22.90
2022-08-20T02:15:39.913Z,22.85
2022-08-20T02:18:15.444Z,22.83
2022-08-20T02:20:44.489Z,22.79
2022-08-20T02:23:13.144Z,22.80
2022-08-20T02:25:43.610Z,22.80
2022-08-20T02:28:14.440Z,22.75
2022-08-20T02:30:46.951Z,22.76
2022-08-20T02:33:17.243Z,22.75
2022-08-20T02:35:47.900Z,22.70
2022-08-20T02:38:16.624Z,22.72
2022-08-20T02:40:46.313Z,22.67
2022-08-20T02:43:14.491Z,22.65
2022-08-20T02:45:44.690Z,22.61
2022-08-20T02:48:20.888Z,22.54
2022-08-20T02:50:51.919Z,22.59
2022-08-20T02:53:19.855Z,22.54
2022-08-20T02:55:47.778Z,22.53
2022-08-20T02:58:16.557Z,22.52
2022-08-20T03:00:46.822Z,22.50
2022-08-20T03:03:20.279Z,22.54
2022-08-20T03:05:48.117Z,22.70
2022-08-20T03:08:17.764Z,22.52
2022-08-20T03:10:47.732Z,22.45
2022-08-20T03:13:17.034Z,22.36
2022-08-20T03:15:48.418Z,22.32
2022-08-20T03:18:18.344Z,22.31
2022-08-20T03:20:46.806Z,22.35
2022-08-20T03:23:22.226Z,22.35
2022-08-20T03:25:50.861Z,22.36
2022-08-20T03:28:19.878Z,22.34
2022-08-20T03:30:50.426Z,22.33
2022-08-20T03:33:20.195Z,22.33
2022-08-20T03:35:48.788Z,22.31
2022-08-20T03:38:32.216Z,22.31
2022-08-20T03:41:00.819Z,22.31
2022-08-20T03:43:29.407Z,22.32
2022-08-20T03:45:58.850Z,22.30
2022-08-20T03:48:26.902Z,22.24
2022-08-20T03:50:55.979Z,22.19
2022-08-20T03:53:24.281Z,22.18
2022-08-20T03:55:58.235Z,22.19
2022-08-20T03:58:34.836Z,22.17
2022-08-20T04:01:07.237Z,22.15
2022-08-20T04:03:36.351Z,22.17
2022-08-20T04:06:05.060Z,22.22
2022-08-20T04:08:33.136Z,22.22
2022-08-20T04:11:01.191Z,22.20
2022-08-20T04:13:30.745Z,22.20
2022-08-20T04:16:02.830Z,22.21
2022-08-20T04:18:34.304Z,22.15
2022-08-20T04:21:02.325Z,22.16
2022-08-20T04:23:32.376Z,22.17
2022-08-20T04:26:00.907Z,22.16
2022-08-20T04:28:30.799Z,22.08
2022-08-20T04:31:02.542Z,22.10
2022-08-20T04:33:34.186Z,22.12
2022-08-20T04:36:06.155Z,22.12
2022-08-20T04:38:49.542Z,22.11
2022-08-20T04:41:23.266Z,22.33
2022-08-20T04:43:54.360Z,22.10
2022-08-20T04:46:26.637Z,22.02
2022-08-20T04:48:58.878Z,22.03
2022-08-20T04:51:28.997Z,21.97
2022-08-20T04:54:03.065Z,22.06
2022-08-20T04:56:39.496Z,22.07
2022-08-20T04:59:10.014Z,22.32
2022-08-20T05:01:38.818Z,22.49
2022-08-20T05:04:11.524Z,22.65
2022-08-20T05:06:42.591Z,22.79
2022-08-20T05:09:14.296Z,22.91
2022-08-20T05:11:48.778Z,23.00
2022-08-20T05:14:18.095Z,23.11
2022-08-20T05:16:51.509Z,23.17
2022-08-20T05:19:30.205Z,23.28
2022-08-20T05:22:01.257Z,23.28
2022-08-20T05:24:33.025Z,23.24
2022-08-20T05:27:03.925Z,23.06
2022-08-20T05:29:36.069Z,23.17
2022-08-20T05:32:07.275Z,23.19
2022-08-20T05:34:39.929Z,23.23
2022-08-20T05:37:12.793Z,23.25
2022-08-20T05:39:42.871Z,23.31
2022-08-20T05:42:11.442Z,23.35
2022-08-20T05:44:40.797Z,23.36
2022-08-20T05:47:11.299Z,23.38
2022-08-20T05:49:42.956Z,23.39
2022-08-20T05:52:13.766Z,23.36
2022-08-20T05:54:43.318Z,23.34
2022-08-20T05:57:14.667Z,23.32
2022-08-20T05:59:44.406Z,23.33
2022-08-20T06:02:27.320Z,23.18
2022-08-20T06:04:59.660Z,23.20
2022-08-20T06:07:30.504Z,23.22
2022-08-20T06:10:02.504Z,23.29
2022-08-20T06:12:33.111Z,23.33
2022-08-20T06:15:01.736Z,23.38
2022-08-20T06:17:39.298Z,23.41
2022-08-20T06:20:10.853Z,23.44
2022-08-20T06:22:39.234Z,23.31
2022-08-20T06:25:08.601Z,23.27
2022-08-20T06:27:40.362Z,23.24
2022-08-20T06:30:10.450Z,23.11
2022-08-20T06:32:38.550Z,23.09
2022-08-20T06:35:10.941Z,23.17
2022-08-20T06:37:40.466Z,23.14
2022-08-20T06:40:12.098Z,23.11
2022-08-20T06:42:47.805Z,23.07
2022-08-20T06:45:18.920Z,23.14
2022-08-20T06:47:48.088Z,23.16
2022-08-20T06:50:20.191Z,23.10
2022-08-20T06:52:52.401Z,23.11
2022-08-20T06:55:32.865Z,23.18
2022-08-20T06:58:02.537Z,23.22
2022-08-20T07:00:31.729Z,23.25
2022-08-20T07:03:01.135Z,23.21
2022-08-20T07:05:34.070Z,23.18
2022-08-20T07:08:02.056Z,23.11
2022-08-20T07:10:30.837Z,23.10
2022-08-20T07:13:01.550Z,23.11
2022-08-20T07:15:31.414Z,23.17
2022-08-20T07:18:06.473Z,23.00
2022-08-20T07:20:41.329Z,23.01
2022-08-20T07:23:11.981Z,22.98
2022-08-20T07:25:41.542Z,23.07
2022-08-20T07:28:15.291Z,23.13
2022-08-20T07:31:12.050Z,23.12
2022-08-20T07:33:41.627Z,23.14
2022-08-20T07:36:11.785Z,23.11
2022-08-20T07:38:39.997Z,23.00
2022-08-20T07:41:14.828Z,22.80
2022-08-20T07:43:45.478Z,22.84
2022-08-20T07:46:15.522Z,22.88
2022-08-20T07:48:46.791Z,22.75
2022-08-20T07:51:18.655Z,22.73
2022-08-20T07:53:48.535Z,22.82
2022-08-20T07:56:21.456Z,22.78
2022-08-20T07:58:52.576Z,22.82
2022-08-20T08:01:23.023Z,22.90
2022-08-20T08:03:51.548Z,22.92
2022-08-20T08:06:29.047Z,22.99
2022-08-20T08:09:03.041Z,23.08
2022-08-20T08:11:38.038Z,23.08
2022-08-20T08:14:09.549Z,22.93
2022-08-20T08:16:39.370Z,22.92
2022-08-20T08:19:12.074Z,23.02
2022-08-20T08:21:42.538Z,23.11
2022-08-20T08:24:12.683Z,23.08
2022-08-20T08:26:43.977Z,22.96
2022-08-20T08:29:13.593Z,22.99
2022-08-20T08:31:42.469Z,22.89
2022-08-20T08:34:12.529Z,22.90
2022-08-20T08:36:44.411Z,22.97
2022-08-20T08:39:14.590Z,23.09
2022-08-20T08:41:50.044Z,23.18
2022-08-20T08:44:23.485Z,23.33
2022-08-20T08:46:54.220Z,23.46
2022-08-20T08:49:33.896Z,23.17
2022-08-20T08:52:15.219Z,23.22
2022-08-20T08:54:50.294Z,22.95
2022-08-20T08:57:21.378Z,23.30
2022-08-20T09:00:03.856Z,23.00
2022-08-20T09:02:35.465Z,23.09
2022-08-20T09:05:15.217Z,22.96
2022-08-20T09:07:51.723Z,22.97
2022-08-20T09:10:23.670Z,22.96
2022-08-20T09:12:55.979Z,23.03
2022-08-20T09:15:26.431Z,22.81
2022-08-20T09:17:58.525Z,22.93
2022-08-20T09:20:30.193Z,23.17
2022-08-20T09:23:01.189Z,23.33
2022-08-20T09:25:31.087Z,23.43
2022-08-20T09:28:00.339Z,23.36
2022-08-20T09:30:31.162Z,23.33
2022-08-20T09:33:00.732Z,23.32
2022-08-20T09:35:29.716Z,23.31
2022-08-20T09:37:59.549Z,23.34
2022-08-20T09:40:29.744Z,23.39
2022-08-20T09:42:59.230Z,23.41
2022-08-20T09:45:28.048Z,23.25
2022-08-20T09:47:58.160Z,23.06
2022-08-20T09:50:30.756Z,23.03
2022-08-20T09:53:03.315Z,23.07
2022-08-20T09:55:36.226Z,22.98
2022-08-20T09:58:11.537Z,23.00
2022-08-20T10:00:42.998Z,23.10
2022-08-20T10:03:12.187Z,23.22
2022-08-20T10:05:41.602Z,23.23
2022-08-20T10:08:13.259Z,23.44
2022-08-20T10:10:44.111Z,23.57
2022-08-20T10:13:15.483Z,23.66
2022-08-20T10:15:45.462Z,23.69
2022-08-20T10:18:15.131Z,23.73
2022-08-20T10:20:43.943Z,23.48
2022-08-20T10:23:14.101Z,23.68
2022-08-20T10:25:44.792Z,23.74
2022-08-20T10:28:16.270Z,23.77
2022-08-20T10:30:48.448Z,23.78
2022-08-20T10:33:20.558Z,23.65
2022-08-20T10:35:49.236Z,23.76
2022-08-20T10:38:22.067Z,23.83
2022-08-20T10:40:53.058Z,23.81
2022-08-20T10:43:22.972Z,23.63
2022-08-20T10:45:53.129Z,23.52
2022-08-20T10:48:23.318Z,23.59
2022-08-20T10:50:54.603Z,23.70
2022-08-20T10:53:23.375Z,23.77
2022-08-20T10:55:54.379Z,23.82
2022-08-20T10:58:24.143Z,23.80
2022-08-20T11:00:56.468Z,23.74
2022-08-20T11:03:27.689Z,23.87
2022-08-20T11:05:56.134Z,23.86
2022-08-20T11:08:33.637Z,23.86
2022-08-20T11:11:05.509Z,23.88
2022-08-20T11:13:35.298Z,23.89
2022-08-20T11:16:05.181Z,23.91
2022-08-20T11:18:33.661Z,23.99
2022-08-20T11:21:02.142Z,24.01
2022-08-20T11:23:30.530Z,23.92
2022-08-20T11:25:59.429Z,23.94
2022-08-20T11:28:32.264Z,23.77
2022-08-20T11:31:02.688Z,23.78
2022-08-20T11:33:32.006Z,23.98
2022-08-20T11:36:00.980Z,24.09
2022-08-20T11:38:30.912Z,24.13
2022-08-20T11:41:00.342Z,24.05
2022-08-20T11:43:31.922Z,23.93
2022-08-20T11:46:00.419Z,24.09
2022-08-20T11:48:30.187Z,24.21
2022-08-20T11:50:59.231Z,24.40
2022-08-20T11:53:27.385Z,24.58
2022-08-20T11:55:57.559Z,24.81
2022-08-20T11:58:27.633Z,24.83
2022-08-20T12:00:57.481Z,24.92
2022-08-20T12:03:25.730Z,24.80
2022-08-20T12:05:57.096Z,24.74
2022-08-20T12:08:27.947Z,24.72
2022-08-20T12:11:00.369Z,24.70
2022-08-20T12:13:48.588Z,24.58
2022-08-20T12:16:20.313Z,24.45
2022-08-20T12:18:49.373Z,24.55
2022-08-20T12:21:17.963Z,24.57
2022-08-20T12:23:46.629Z,24.66
2022-08-20T12:26:16.669Z,24.84
2022-08-20T12:28:45.027Z,25.00
2022-08-20T12:31:13.278Z,25.13
2022-08-20T12:33:43.145Z,25.25
2022-08-20T12:36:11.437Z,25.44
2022-08-20T12:38:39.691Z,25.61
2022-08-20T12:41:08.307Z,25.82
2022-08-20T12:43:39.994Z,25.87
2022-08-20T12:46:10.338Z,25.78
2022-08-20T12:48:40.963Z,25.89
2022-08-20T12:51:12.217Z,25.99
2022-08-20T12:53:41.306Z,26.06
2022-08-20T12:56:10.019Z,25.70
2022-08-20T12:58:40.720Z,25.89
2022-08-20T13:01:10.399Z,25.75
2022-08-20T13:03:45.118Z,25.65
2022-08-20T13:06:14.659Z,25.71
2022-08-20T13:08:42.992Z,25.71
2022-08-20T13:11:11.024Z,25.64
2022-08-20T13:13:39.495Z,25.75
2022-08-20T13:16:10.179Z,25.77
2022-08-20T13:18:40.447Z,25.79
2022-08-20T13:21:08.780Z,26.06
2022-08-20T13:23:38.960Z,26.20
2022-08-20T13:26:08.505Z,26.29
2022-08-20T13:28:37.535Z,26.37
2022-08-20T13:31:06.229Z,26.36
2022-08-20T13:33:35.647Z,26.27
2022-08-20T13:36:04.219Z,25.89
2022-08-20T13:38:33.445Z,25.71
2022-08-20T13:41:04.077Z,25.68
2022-08-20T13:43:34.357Z,25.69
2022-08-20T13:46:03.292Z,25.75
2022-08-20T13:48:31.401Z,25.81
2022-08-20T13:50:59.906Z,25.97
2022-08-20T13:53:27.932Z,25.89
2022-08-20T13:55:56.274Z,25.69
2022-08-20T13:58:26.202Z,25.76
2022-08-20T14:00:54.798Z,25.71
2022-08-20T14:03:25.313Z,25.92
2022-08-20T14:05:54.756Z,25.99
2022-08-20T14:08:26.324Z,25.93
2022-08-20T14:10:55.638Z,26.02
2022-08-20T14:13:28.248Z,26.43
2022-08-20T14:15:57.101Z,26.42
2022-08-20T14:18:25.673Z,26.57
2022-08-20T14:20:54.910Z,26.67
2022-08-20T14:23:25.127Z,26.80
2022-08-20T14:25:54.185Z,26.51
2022-08-20T14:28:28.087Z,26.68
2022-08-20T14:30:57.006Z,26.71
2022-08-20T14:33:25.879Z,26.74
2022-08-20T14:35:54.644Z,26.39
2022-08-20T14:38:25.325Z,26.38
2022-08-20T14:40:53.889Z,26.41
2022-08-20T14:43:23.799Z,26.47
2022-08-20T14:45:53.825Z,26.76
2022-08-20T14:48:26.101Z,26.89
2022-08-20T14:50:56.170Z,26.88
2022-08-20T14:53:25.521Z,26.85
2022-08-20T14:55:53.643Z,26.86
2022-08-20T14:58:23.744Z,27.06
2022-08-20T15:00:56.671Z,26.91
2022-08-20T15:03:30.971Z,26.33
2022-08-20T15:06:00.891Z,26.27
2022-08-20T15:08:30.528Z,26.10
2022-08-20T15:10:59.437Z,25.88
2022-08-20T15:13:27.771Z,25.88
2022-08-20T15:15:57.263Z,25.88
2022-08-20T15:18:25.354Z,25.86
2022-08-20T15:20:54.042Z,25.86
2022-08-20T15:23:22.646Z,25.90
2022-08-20T15:25:50.793Z,25.99
2022-08-20T15:28:19.024Z,26.09
2022-08-20T15:30:47.136Z,26.08
2022-08-20T15:33:16.642Z,25.91
2022-08-20T15:35:45.062Z,25.88
2022-08-20T15:38:13.517Z,25.91
2022-08-20T15:40:41.871Z,25.98
2022-08-20T15:43:09.956Z,25.98
2022-08-20T15:45:38.195Z,25.93
2022-08-20T15:48:13.171Z,26.16
2022-08-20T15:51:12.352Z,26.43
2022-08-20T15:53:53.514Z,26.57
2022-08-20T15:56:42.085Z,26.64
2022-08-20T15:59:21.939Z,26.50
2022-08-20T16:02:00.412Z,26.41
2022-08-20T16:05:07.330Z,26.23
2022-08-20T16:07:47.123Z,26.12
2022-08-20T16:10:21.148Z,26.22
2022-08-20T16:12:52.785Z,26.26
2022-08-20T16:15:26.429Z,26.48
2022-08-20T16:18:07.039Z,26.68
2022-08-20T16:20:43.882Z,26.77
2022-08-20T16:23:22.658Z,26.87
2022-08-20T16:26:03.341Z,26.87
2022-08-20T16:28:42.675Z,26.84
2022-08-20T16:31:16.186Z,26.69
2022-08-20T16:33:53.332Z,26.73
2022-08-20T16:36:29.686Z,26.63
2022-08-20T16:39:04.871Z,26.32
2022-08-20T16:41:40.609Z,26.35
2022-08-20T16:44:17.739Z,26.30
2022-08-20T16:46:54.987Z,26.14
2022-08-20T16:49:32.445Z,26.17
2022-08-20T16:52:01.610Z,26.05
2022-08-20T16:54:31.409Z,26.03
2022-08-20T16:57:04.136Z,25.95
2022-08-20T16:59:36.600Z,25.83
2022-08-20T17:02:12.474Z,25.77
2022-08-20T17:04:57.844Z,25.86
2022-08-20T17:07:43.470Z,25.83
2022-08-20T17:10:21.679Z,25.82
2022-08-20T17:13:01.149Z,25.62
2022-08-20T17:15:34.602Z,25.58
2022-08-20T17:18:20.770Z,25.61
2022-08-20T17:20:49.173Z,25.46
2022-08-20T17:23:20.158Z,25.49
2022-08-20T17:25:58.794Z,25.52
2022-08-20T17:28:35.254Z,25.55
2022-08-20T17:31:03.552Z,25.51
2022-08-20T17:33:35.218Z,25.30
2022-08-20T17:36:08.072Z,25.26
2022-08-20T17:38:41.008Z,25.26
2022-08-20T17:41:17.383Z,25.31
2022-08-20T17:43:46.213Z,25.22
2022-08-20T17:46:17.370Z,25.21
2022-08-20T17:48:48.419Z,25.13
2022-08-20T17:51:19.298Z,25.09
2022-08-20T17:53:52.131Z,25.14
2022-08-20T17:56:25.223Z,25.12
2022-08-20T17:59:03.094Z,25.16
2022-08-20T18:01:31.761Z,25.11
2022-08-20T18:04:00.040Z,25.16
2022-08-20T18:06:33.739Z,25.16
2022-08-20T18:09:05.638Z,25.24
2022-08-20T18:11:41.525Z,25.21
2022-08-20T18:14:25.585Z,25.28
2022-08-20T18:17:09.821Z,25.33
2022-08-20T18:20:07.110Z,25.28
2022-08-20T18:22:44.555Z,25.14
2022-08-20T18:25:24.463Z,25.22
2022-08-20T18:27:58.969Z,25.18
2022-08-20T18:30:28.013Z,25.16
2022-08-20T18:33:04.676Z,25.10
2022-08-20T18:35:37.363Z,25.05
2022-08-20T18:38:28.892Z,25.09
2022-08-20T18:41:08.362Z,25.02
2022-08-20T18:43:38.156Z,24.91
2022-08-20T18:46:15.895Z,24.91
2022-08-20T18:48:55.823Z,24.87
2022-08-20T18:51:36.388Z,24.84
2022-08-20T18:54:05.998Z,24.86
2022-08-20T18:56:43.223Z,24.87
2022-08-20T18:59:16.519Z,24.88
2022-08-20T19:01:44.648Z,25.11
2022-08-20T19:04:27.196Z,24.93
2022-08-20T19:06:59.948Z,24.81
2022-08-20T19:09:44.110Z,24.87
2022-08-20T19:12:38.765Z,24.85
2022-08-20T19:15:13.137Z,24.86
2022-08-20T19:17:59.346Z,24.86
2022-08-20T19:20:31.314Z,24.80
2022-08-20T19:23:05.996Z,24.81
2022-08-20T19:25:38.481Z,24.85
2022-08-20T19:28:18.539Z,24.92
2022-08-20T19:30:48.489Z,24.97
2022-08-20T19:33:26.459Z,24.83
2022-08-20T19:36:28.214Z,24.93
2022-08-20T19:38:59.084Z,24.91
2022-08-20T19:41:33.645Z,24.94
2022-08-20T19:44:03.917Z,24.94
2022-08-20T19:46:39.565Z,24.99
2022-08-20T19:49:21.163Z,25.05
2022-08-20T19:52:02.732Z,25.12
2022-08-20T19:54:31.382Z,25.11
2022-08-20T19:57:07.467Z,25.09
2022-08-20T19:59:36.608Z,25.10
2022-08-20T20:02:20.642Z,25.15
2022-08-20T20:04:54.877Z,25.06
2022-08-20T20:07:28.638Z,25.04
2022-08-20T20:09:59.433Z,25.06
2022-08-20T20:12:29.800Z,25.12
2022-08-20T20:15:00.319Z,25.11
2022-08-20T20:17:35.416Z,25.14
2022-08-20T20:20:23.192Z,25.23
2022-08-20T20:22:56.767Z,25.18
2022-08-20T20:25:42.713Z,25.17
2022-08-20T20:28:18.971Z,25.17
2022-08-20T20:30:48.449Z,25.10
2022-08-20T20:33:21.996Z,25.06
2022-08-20T20:36:04.273Z,24.99
2022-08-20T20:38:34.260Z,24.97
2022-08-20T20:41:05.486Z,24.98
2022-08-20T20:43:38.459Z,24.99
2022-08-20T20:46:15.885Z,24.96
2022-08-20T20:48:50.429Z,24.98
2022-08-20T20:51:31.036Z,24.98
2022-08-20T20:54:03.176Z,24.95
2022-08-20T20:56:36.607Z,24.91
2022-08-20T20:59:09.504Z,24.81
2022-08-20T21:01:49.278Z,24.82
2022-08-20T21:04:26.130Z,24.85
2022-08-20T21:07:00.679Z,24.89
2022-08-20T21:09:30.483Z,24.92
2022-08-20T21:12:00.047Z,24.91
2022-08-20T21:14:29.155Z,24.92
2022-08-20T21:17:00.762Z,24.94
2022-08-20T21:19:31.477Z,24.90
2022-08-20T21:22:00.228Z,24.85
2022-08-20T21:24:30.587Z,24.80
2022-08-20T21:27:01.735Z,24.74
2022-08-20T21:29:33.013Z,24.75
2022-08-20T21:32:01.601Z,24.76
2022-08-20T21:34:32.907Z,24.79
2022-08-20T21:37:02.996Z,24.77
2022-08-20T21:39:31.771Z,24.74
2022-08-20T21:42:03.131Z,24.69
2022-08-20T21:44:35.674Z,24.69
2022-08-20T21:47:05.349Z,24.63
2022-08-20T21:49:36.563Z,24.60
2022-08-20T21:52:05.595Z,24.58
2022-08-20T21:54:33.807Z,24.60
2022-08-20T21:57:05.273Z,24.62
2022-08-20T21:59:38.069Z,24.63
2022-08-20T22:02:08.414Z,24.82
2022-08-20T22:04:40.369Z,24.61
2022-08-20T22:07:12.294Z,24.53
2022-08-20T22:09:41.610Z,24.54
2022-08-20T22:12:20.793Z,24.54
2022-08-20T22:14:51.279Z,24.53
2022-08-20T22:17:21.010Z,24.61
2022-08-20T22:19:51.878Z,24.57
2022-08-20T22:22:23.670Z,24.51
2022-08-20T22:24:53.079Z,24.49
2022-08-20T22:27:22.642Z,24.44
2022-08-20T22:29:54.203Z,24.40
2022-08-20T22:32:33.295Z,24.42
2022-08-20T22:35:16.031Z,24.46
2022-08-20T22:37:44.209Z,24.40
2022-08-20T22:40:17.047Z,24.37
2022-08-20T22:42:47.809Z,24.32
2022-08-20T22:45:18.928Z,24.25
2022-08-20T22:47:49.797Z,24.32
2022-08-20T22:50:22.265Z,24.39
2022-08-20T22:52:52.423Z,24.41
2022-08-20T22:55:22.813Z,24.33
2022-08-20T22:57:51.342Z,24.24
2022-08-20T23:00:20.090Z,24.15
2022-08-20T23:02:55.104Z,24.05
2022-08-20T23:05:28.074Z,23.99
2022-08-20T23:08:00.146Z,23.88
2022-08-20T23:10:32.517Z,23.77
2022-08-20T23:13:01.076Z,23.66
2022-08-20T23:15:31.883Z,23.56
2022-08-20T23:18:03.430Z,23.49
2022-08-20T23:20:35.646Z,23.36
2022-08-20T23:23:06.214Z,23.35
2022-08-20T23:25:35.080Z,23.32
2022-08-20T23:28:03.431Z,23.31
2022-08-20T23:30:33.840Z,23.25
2022-08-20T23:33:03.290Z,23.20
2022-08-20T23:35:35.588Z,23.15
2022-08-20T23:38:05.229Z,23.16
2022-08-20T23:40:35.760Z,23.02
2022-08-20T23:43:05.916Z,22.99
2022-08-20T23:45:39.683Z,22.91
2022-08-20T23:48:11.402Z,22.89
2022-08-20T23:50:43.243Z,22.81
2022-08-20T23:53:12.053Z,22.78
2022-08-20T23:55:40.904Z,22.59
2022-08-20T23:58:10.875Z,22.64
